createdAt,value
2023-05-25T00:01:16.202Z,37.20
2023-05-25T00:06:17.642Z,37.20
2023-05-25T00:11:19.088Z,37.20
2023-05-25T00:16:20.577Z,37.20
2023-05-25T00:21:22.099Z,37.20
2023-05-25T00:26:23.565Z,37.20
2023-05-25T00:31:25.112Z,37.20
2023-05-25T00:36:26.604Z,37.30
2023-05-25T00:41:28.067Z,37.20
2023-05-25T00:46:29.543Z,37.20
2023-05-25T00:51:31.042Z,37.20
2023-05-25T00:56:32.491Z,37.20
2023-05-25T01:01:33.982Z,37.90
2023-05-25T01:06:35.461Z,37.20
2023-05-25T01:11:36.905Z,37.30
2023-05-25T01:16:38.434Z,37.20
2023-05-25T01:21:39.927Z,37.20
2023-05-25T01:26:41.369Z,37.20
2023-05-25T01:31:42.882Z,37.20
2023-05-25T01:36:44.377Z,37.30
2023-05-25T01:41:45.870Z,37.20
2023-05-25T01:46:47.297Z,37.20
2023-05-25T01:51:48.773Z,37.20
2023-05-25T01:56:50.248Z,37.20
2023-05-25T02:01:53.453Z,37.20
2023-05-25T02:06:55.193Z,37.20
2023-05-25T02:11:56.636Z,37.30
2023-05-25T02:16:58.086Z,37.20
2023-05-25T02:21:59.556Z,37.20
2023-05-25T02:27:01.042Z,37.20
2023-05-25T02:32:02.491Z,37.20
2023-05-25T02:37:03.952Z,37.20
2023-05-25T02:42:05.403Z,37.20
2023-05-25T02:47:06.928Z,37.20
2023-05-25T02:52:08.592Z,37.20
2023-05-25T02:57:10.036Z,37.20
2023-05-25T03:02:11.505Z,37.20
2023-05-25T03:07:12.961Z,37.20
2023-05-25T03:12:14.415Z,37.20
2023-05-25T03:17:15.855Z,37.20
2023-05-25T03:22:17.296Z,37.20
2023-05-25T03:27:18.742Z,37.20
2023-05-25T03:32:20.183Z,37.20
2023-05-25T03:37:21.635Z,37.30
2023-05-25T03:42:23.067Z,37.20
2023-05-25T03:47:24.526Z,37.20
2023-05-25T03:52:26.019Z,37.20
2023-05-25T03:57:27.458Z,37.30
2023-05-25T04:02:28.942Z,37.20
2023-05-25T04:07:30.498Z,37.30
2023-05-25T04:12:31.951Z,37.30
2023-05-25T04:17:33.458Z,37.20
2023-05-25T04:22:34.943Z,37.30
2023-05-25T04:27:36.395Z,37.40
2023-05-25T04:32:37.896Z,37.40
2023-05-25T04:37:39.364Z,37.30
2023-05-25T04:42:40.804Z,37.20
2023-05-25T04:47:42.277Z,37.30
2023-05-25T04:52:43.802Z,37.30
2023-05-25T04:57:45.260Z,37.30
2023-05-25T05:02:46.808Z,37.30
2023-05-25T05:07:48.316Z,37.40
2023-05-25T05:12:49.791Z,37.30
2023-05-25T05:17:51.325Z,37.30
2023-05-25T05:22:52.827Z,37.40
2023-05-25T05:27:54.275Z,37.30
2023-05-25T05:32:55.794Z,37.40
2023-05-25T05:37:57.298Z,37.40
2023-05-25T05:42:58.775Z,37.40
2023-05-25T05:48:00.293Z,37.40
2023-05-25T05:53:01.762Z,37.40
2023-05-25T05:58:03.210Z,37.40
2023-05-25T06:03:04.705Z,37.40
2023-05-25T06:08:06.310Z,37.40
2023-05-25T06:13:08.785Z,37.40
2023-05-25T06:18:10.289Z,37.40
2023-05-25T06:23:11.768Z,37.50
2023-05-25T06:28:13.221Z,37.50
2023-05-25T06:33:14.660Z,37.40
2023-05-25T06:38:16.085Z,37.50
2023-05-25T06:43:17.534Z,37.50
2023-05-25T06:48:18.977Z,37.50
2023-05-25T06:53:20.417Z,37.50
2023-05-25T06:58:21.879Z,37.50
2023-05-25T07:03:23.326Z,37.60
2023-05-25T07:08:24.776Z,37.40
2023-05-25T07:13:26.225Z,37.50
2023-05-25T07:18:27.679Z,37.50
2023-05-25T07:23:29.127Z,37.40
2023-05-25T07:28:30.564Z,37.50
2023-05-25T07:33:32.011Z,37.40
2023-05-25T07:38:33.460Z,37.50
2023-05-25T07:43:34.905Z,37.50
2023-05-25T07:48:36.373Z,37.50
2023-05-25T07:53:37.854Z,37.50
2023-05-25T07:58:39.320Z,37.50
2023-05-25T08:08:49.322Z,37.40
2023-05-25T08:13:50.781Z,38.10
2023-05-25T08:18:52.235Z,37.50
2023-05-25T08:23:53.656Z,37.50
2023-05-25T08:28:55.091Z,37.30
2023-05-25T08:33:56.562Z,37.50
2023-05-25T08:38:58.025Z,37.30
2023-05-25T08:43:59.469Z,37.40
2023-05-25T08:49:01.017Z,37.30
2023-05-25T08:54:02.586Z,37.30
2023-05-25T08:59:06.536Z,37.40
2023-05-25T09:04:08.445Z,37.20
2023-05-25T09:09:09.901Z,37.40
2023-05-25T09:14:11.369Z,37.30
2023-05-25T09:19:13.550Z,37.20
2023-05-25T09:24:15.022Z,37.30
2023-05-25T09:29:16.493Z,37.40
2023-05-25T09:34:18.031Z,37.30
2023-05-25T09:39:19.630Z,37.20
2023-05-25T09:44:21.205Z,37.30
2023-05-25T09:49:22.720Z,37.30
2023-05-25T09:54:24.191Z,37.30
2023-05-25T09:59:25.655Z,37.20
2023-05-25T10:04:27.204Z,37.30
2023-05-25T10:09:28.773Z,37.30
2023-05-25T10:14:30.323Z,37.30
2023-05-25T10:19:31.845Z,37.40
2023-05-25T10:24:33.467Z,37.90
2023-05-25T10:29:34.919Z,37.30
2023-05-25T10:34:36.370Z,37.40
2023-05-25T10:39:37.858Z,37.40
2023-05-25T10:44:39.313Z,37.40
2023-05-25T10:49:40.749Z,37.40
2023-05-25T10:54:42.301Z,37.40
2023-05-25T10:59:43.762Z,37.40
2023-05-25T11:04:45.261Z,37.40
2023-05-25T11:09:46.762Z,37.40
2023-05-25T11:14:48.220Z,37.40
2023-05-25T11:19:51.503Z,37.40
2023-05-25T11:24:53.521Z,37.40
2023-05-25T11:29:54.969Z,38.00
2023-05-25T11:34:56.512Z,37.40
2023-05-25T11:39:57.968Z,37.40
2023-05-25T11:44:59.404Z,37.40
2023-05-25T11:50:00.868Z,37.30
2023-05-25T11:55:02.350Z,37.40
2023-05-25T12:00:03.813Z,37.40
2023-05-25T12:05:05.323Z,37.30
2023-05-25T12:10:06.791Z,37.40
2023-05-25T12:15:08.237Z,37.30
2023-05-25T12:20:09.715Z,37.40
2023-05-25T12:25:11.245Z,37.40
2023-05-25T12:30:12.757Z,38.00
2023-05-25T12:35:14.214Z,37.40
2023-05-25T12:40:15.671Z,37.40
2023-05-25T12:45:17.147Z,37.40
2023-05-25T12:50:18.636Z,37.40
2023-05-25T12:55:20.118Z,37.40
2023-05-25T13:00:21.578Z,37.40
2023-05-25T13:05:23.186Z,37.30
2023-05-25T13:10:24.771Z,37.90
2023-05-25T13:15:26.271Z,37.30
2023-05-25T13:20:27.808Z,37.30
2023-05-25T13:25:29.278Z,37.30
2023-05-25T13:30:30.713Z,37.30
2023-05-25T13:35:32.206Z,37.30
2023-05-25T13:40:33.724Z,37.30
2023-05-25T13:45:35.163Z,37.20
2023-05-25T13:50:36.604Z,37.20
2023-05-25T13:55:38.764Z,37.30
2023-05-25T14:00:40.353Z,37.30
2023-05-25T14:05:42.056Z,37.30
2023-05-25T14:10:43.708Z,37.30
2023-05-25T14:15:45.649Z,37.20
2023-05-25T14:20:47.486Z,37.20
2023-05-25T14:25:49.026Z,37.20
2023-05-25T14:30:50.483Z,37.20
2023-05-25T14:35:51.974Z,37.20
2023-05-25T14:40:53.446Z,37.20
2023-05-25T14:45:54.885Z,37.20
2023-05-25T14:50:56.327Z,37.20
2023-05-25T14:55:57.780Z,37.20
2023-05-25T15:00:59.219Z,37.20
2023-05-25T15:06:00.670Z,37.20
2023-05-25T15:11:02.121Z,37.20
2023-05-25T15:16:03.565Z,37.20
2023-05-25T15:21:05.018Z,37.20
2023-05-25T15:26:06.462Z,37.20
2023-05-25T15:31:07.920Z,37.20
2023-05-25T15:36:09.441Z,37.20
2023-05-25T15:41:10.893Z,37.20
2023-05-25T15:46:12.467Z,37.20
2023-05-25T15:51:13.950Z,37.20
2023-05-25T15:56:15.393Z,37.20
2023-05-25T16:01:16.918Z,37.20
2023-05-25T16:06:18.665Z,37.20
2023-05-25T16:11:20.210Z,37.20
2023-05-25T16:16:21.772Z,37.20
2023-05-25T16:21:23.283Z,37.10
2023-05-25T16:26:24.768Z,37.20
2023-05-25T16:31:26.274Z,37.10
2023-05-25T16:36:27.752Z,37.20
2023-05-25T16:41:29.202Z,37.20
2023-05-25T16:46:30.717Z,37.20
2023-05-25T16:51:32.225Z,37.30
2023-05-25T16:56:33.693Z,37.20
2023-05-25T17:01:35.217Z,37.30
2023-05-25T17:06:36.761Z,37.40
2023-05-25T17:11:38.406Z,37.40
2023-05-25T17:16:39.947Z,37.40
2023-05-25T17:21:41.530Z,37.40
2023-05-25T17:26:42.995Z,37.40
2023-05-25T17:31:46.883Z,37.40
2023-05-25T17:36:49.893Z,37.40
2023-05-25T17:41:51.346Z,37.40
2023-05-25T17:46:52.811Z,37.40
2023-05-25T17:51:54.266Z,37.40
2023-05-25T17:56:55.851Z,37.50
2023-05-25T18:01:57.467Z,37.40
2023-05-25T18:06:59.022Z,37.50
2023-05-25T18:12:00.521Z,37.50
2023-05-25T18:17:02.046Z,37.50
2023-05-25T18:22:03.626Z,37.50
2023-05-25T18:27:05.095Z,37.60
2023-05-25T18:32:06.687Z,37.60
2023-05-25T18:37:08.145Z,37.50
2023-05-25T18:42:09.624Z,37.50
2023-05-25T18:47:11.077Z,37.50
2023-05-25T18:52:12.517Z,37.50
2023-05-25T18:57:13.961Z,37.60
2023-05-25T19:02:15.503Z,37.50
2023-05-25T19:07:17.080Z,37.60
2023-05-25T19:12:18.587Z,37.60
2023-05-25T19:17:20.075Z,37.60
2023-05-25T19:22:21.578Z,37.50
2023-05-25T19:27:23.064Z,37.60
2023-05-25T19:32:24.567Z,37.60
2023-05-25T19:37:26.063Z,37.50
2023-05-25T19:42:27.548Z,37.60
2023-05-25T19:47:29.083Z,37.60
2023-05-25T19:52:30.577Z,37.60
2023-05-25T19:57:32.041Z,37.60
2023-05-25T20:02:33.564Z,37.60
2023-05-25T20:07:35.049Z,37.60
2023-05-25T20:12:36.726Z,37.60
2023-05-25T20:17:38.268Z,37.70
2023-05-25T20:22:39.798Z,37.70
2023-05-25T20:27:44.048Z,37.70
2023-05-25T20:32:45.582Z,37.70
2023-05-25T20:37:47.070Z,37.70
2023-05-25T20:42:48.526Z,37.70
2023-05-25T20:47:49.973Z,37.70
2023-05-25T20:52:51.499Z,37.80
2023-05-25T20:57:52.963Z,37.70
2023-05-25T21:02:54.513Z,37.80
2023-05-25T21:07:55.984Z,37.80
2023-05-25T21:12:57.475Z,37.80
2023-05-25T21:17:58.963Z,37.80
2023-05-25T21:23:00.411Z,37.80
2023-05-25T21:28:01.853Z,37.80
2023-05-25T21:33:03.382Z,37.80
2023-05-25T21:38:04.864Z,37.80
2023-05-25T21:43:06.322Z,37.80
2023-05-25T21:48:07.935Z,37.80
2023-05-25T21:53:09.412Z,37.80
2023-05-25T21:58:10.865Z,37.90
2023-05-25T22:03:12.414Z,37.80
2023-05-25T22:08:13.979Z,37.90
2023-05-25T22:13:15.434Z,37.90
2023-05-25T22:18:16.891Z,37.90
2023-05-25T22:23:18.343Z,37.90
2023-05-25T22:28:19.797Z,37.80
2023-05-25T22:33:21.310Z,37.80
2023-05-25T22:38:22.748Z,37.80
2023-05-25T22:43:24.206Z,37.90
2023-05-25T22:48:25.656Z,37.80
2023-05-25T22:53:27.116Z,37.90
2023-05-25T22:58:28.583Z,37.80
2023-05-25T23:03:30.335Z,37.80
2023-05-25T23:08:31.905Z,37.80
2023-05-25T23:13:33.354Z,37.90
2023-05-25T23:18:34.814Z,37.90
2023-05-25T23:23:37.393Z,37.90
2023-05-25T23:28:38.882Z,37.80
2023-05-25T23:33:40.372Z,37.80
2023-05-25T23:38:41.825Z,37.80
2023-05-25T23:43:43.299Z,37.80
2023-05-25T23:48:44.757Z,37.80
2023-05-25T23:53:46.210Z,37.80
2023-05-25T23:58:47.650Z,37.80
